createdAt,value
2023-01-12T00:01:17.548Z,46.9
2023-01-12T00:06:35.612Z,46.7
2023-01-12T00:11:54.406Z,46.6
2023-01-12T00:17:13.187Z,46.9
2023-01-12T00:22:31.669Z,46.8
2023-01-12T00:27:50.275Z,47.7
2023-01-12T00:33:08.779Z,48
2023-01-12T00:38:11.900Z,48.7
2023-01-12T00:43:30.375Z,49
2023-01-12T00:48:49.277Z,49.1
2023-01-12T00:54:07.738Z,48.6
2023-01-12T00:59:26.507Z,49.3
2023-01-12T01:04:45.003Z,49.5
2023-01-12T01:10:04.397Z,49.4
2023-01-12T01:15:25.233Z,49.5
2023-01-12T01:20:44.012Z,49.1
2023-01-12T01:26:02.530Z,49.5
2023-01-12T01:31:27.121Z,49.7
2023-01-12T01:36:45.625Z,49.5
2023-01-12T01:42:04.414Z,49.2
2023-01-12T01:47:22.910Z,50
2023-01-12T01:52:41.418Z,49.5
2023-01-12T01:57:59.626Z,49.4
2023-01-12T02:03:17.831Z,50.4
2023-01-12T02:08:36.067Z,50.4
2023-01-12T02:13:54.885Z,49.9
2023-01-12T02:19:13.095Z,50.3
2023-01-12T02:24:31.583Z,49.4
2023-01-12T02:29:50.051Z,49.6
2023-01-12T02:35:08.545Z,51
2023-01-12T02:40:26.774Z,50.6
2023-01-12T02:45:45.285Z,50.9
2023-01-12T02:51:03.780Z,50.4
2023-01-12T02:56:22.296Z,50.9
2023-01-12T03:01:41.063Z,49.8
2023-01-12T03:06:59.872Z,50.1
2023-01-12T03:12:18.486Z,50
2023-01-12T03:17:36.732Z,49.6
2023-01-12T03:22:55.534Z,49.6
2023-01-12T03:28:13.748Z,50
2023-01-12T03:33:32.245Z,49.6
2023-01-12T03:38:51.013Z,50.1
2023-01-12T03:44:09.842Z,50.2
2023-01-12T03:49:28.042Z,50.2
2023-01-12T03:54:46.839Z,49.5
2023-01-12T04:00:06.631Z,50.3
2023-01-12T04:05:25.402Z,50.6
2023-01-12T04:10:44.198Z,51
2023-01-12T04:16:02.569Z,50.6
2023-01-12T04:21:20.579Z,50.9
2023-01-12T04:26:39.389Z,50.3
2023-01-12T04:31:58.246Z,50.6
2023-01-12T04:37:16.746Z,49.5
2023-01-12T04:42:35.530Z,50.3
2023-01-12T04:47:53.762Z,49.6
2023-01-12T04:53:12.517Z,51.5
2023-01-12T04:58:31.136Z,50.9
2023-01-12T05:03:49.455Z,51.5
2023-01-12T05:09:07.404Z,50.6
2023-01-12T05:14:25.910Z,50.2
2023-01-12T05:19:44.415Z,50.4
2023-01-12T05:25:02.886Z,51.4
2023-01-12T05:30:21.385Z,50.5
2023-01-12T05:35:39.944Z,50.9
2023-01-12T05:40:58.274Z,47.1
2023-01-12T05:46:16.930Z,42.9
2023-01-12T05:51:34.887Z,39.7
2023-01-12T05:56:53.077Z,38.1
2023-01-12T06:02:12.094Z,38.8
2023-01-12T06:07:30.675Z,39.7
2023-01-12T06:12:48.872Z,40.8
2023-01-12T06:18:07.736Z,41
2023-01-12T06:23:36.578Z,41.8
2023-01-12T06:28:55.174Z,43.2
2023-01-12T06:34:13.978Z,42.8
2023-01-12T06:39:16.863Z,43.6
2023-01-12T06:44:21.100Z,43.8
2023-01-12T06:49:39.585Z,43.8
2023-01-12T06:54:58.097Z,44.5
2023-01-12T07:00:16.854Z,44.1
2023-01-12T07:05:35.344Z,44
2023-01-12T07:10:53.861Z,44.5
2023-01-12T07:53:18.157Z,46.7
2023-01-12T07:58:36.908Z,47.1
2023-01-12T08:03:55.387Z,46.6
2023-01-12T08:09:13.682Z,47.1
2023-01-12T08:14:32.139Z,47.3
2023-01-12T08:19:50.976Z,48
2023-01-12T08:25:10.398Z,47.5
2023-01-12T08:30:29.001Z,47.4
2023-01-12T08:35:47.497Z,48.2
2023-01-12T08:41:06.122Z,48.5
2023-01-12T08:46:24.675Z,48.2
2023-01-12T08:51:43.637Z,48
2023-01-12T08:57:03.219Z,48.5
2023-01-12T09:02:21.994Z,48.2
2023-01-12T09:07:40.374Z,48.5
2023-01-12T09:12:59.240Z,48.4
2023-01-12T09:18:20.662Z,48.4
2023-01-12T09:23:39.594Z,47.7
2023-01-12T09:28:57.858Z,48.4
2023-01-12T09:34:17.002Z,47.8
2023-01-12T09:39:35.490Z,48.5
2023-01-12T09:44:53.522Z,47.7
2023-01-12T09:50:12.051Z,48.7
2023-01-12T09:55:30.676Z,47.7
2023-01-12T10:00:48.877Z,48.2
2023-01-12T10:06:07.319Z,48.8
2023-01-12T10:11:25.734Z,48.8
2023-01-12T10:16:28.630Z,48
2023-01-12T10:21:47.470Z,48.5
2023-01-12T10:27:05.767Z,47.7
2023-01-12T10:32:41.433Z,48.5
2023-01-12T10:38:00.121Z,48.4
2023-01-12T10:43:21.306Z,48.1
2023-01-12T10:48:39.861Z,47.3
2023-01-12T10:53:58.101Z,48.3
2023-01-12T10:59:16.846Z,47.6
2023-01-12T11:04:35.452Z,47.5
2023-01-12T11:09:53.695Z,48.4
2023-01-12T11:15:12.629Z,48.4
2023-01-12T11:20:30.878Z,48.3
2023-01-12T11:25:49.201Z,47.7
2023-01-12T11:31:07.506Z,47.8
2023-01-12T11:36:26.347Z,47.7
2023-01-12T11:41:45.080Z,47.8
2023-01-12T11:47:03.601Z,48.2
2023-01-12T11:52:22.022Z,48.3
2023-01-12T11:57:40.662Z,48.5
2023-01-12T12:03:00.166Z,48.7
2023-01-12T12:08:18.557Z,48.4
2023-01-12T12:13:37.321Z,48.5
2023-01-12T12:18:55.838Z,47.8
2023-01-12T12:24:14.547Z,47.8
2023-01-12T12:29:33.067Z,48.5
2023-01-12T12:34:51.821Z,47.9
2023-01-12T12:40:10.684Z,48.3
2023-01-12T12:45:29.343Z,48.5
2023-01-12T12:50:47.775Z,47.6
2023-01-12T12:56:06.528Z,47.8
2023-01-12T13:01:25.680Z,48.3
2023-01-12T13:06:28.540Z,47.7
2023-01-12T13:11:46.859Z,47.6
2023-01-12T13:17:05.708Z,48.8
2023-01-12T13:22:24.332Z,47.7
2023-01-12T13:27:43.194Z,47.7
2023-01-12T13:33:01.916Z,48.5
2023-01-12T13:38:20.178Z,48.5
2023-01-12T13:43:22.603Z,47.8
2023-01-12T13:48:41.649Z,47.8
2023-01-12T13:53:59.849Z,47.6
2023-01-12T13:59:18.534Z,47.8
2023-01-12T14:04:36.837Z,47.9
2023-01-12T14:09:55.597Z,48.7
2023-01-12T14:15:14.113Z,48.7
2023-01-12T14:20:32.637Z,48.7
2023-01-12T14:25:51.389Z,48.8
2023-01-12T14:31:09.622Z,48
2023-01-12T14:36:28.112Z,47.9
2023-01-12T14:41:46.904Z,48.5
2023-01-12T14:47:05.771Z,48.6
2023-01-12T14:52:24.223Z,48.2
2023-01-12T14:57:43.505Z,48
2023-01-12T15:03:02.101Z,47.9
2023-01-12T15:08:20.367Z,48
2023-01-12T15:13:39.014Z,47.8
2023-01-12T15:18:57.306Z,49
2023-01-12T15:24:16.125Z,48.8
2023-01-12T15:29:35.050Z,48.5
2023-01-12T15:34:53.498Z,48.4
2023-01-12T15:40:11.703Z,47.8
2023-01-12T15:45:30.462Z,47.9
2023-01-12T15:50:48.747Z,48.3
2023-01-12T15:56:07.552Z,48.3
2023-01-12T16:01:27.681Z,47.4
2023-01-12T16:06:46.552Z,48.6
2023-01-12T16:12:05.221Z,48.6
2023-01-12T16:17:23.344Z,48.6
2023-01-12T16:22:41.804Z,48.6
2023-01-12T16:28:00.353Z,48.6
2023-01-12T16:33:18.837Z,49
2023-01-12T16:38:37.522Z,48.6
2023-01-12T16:43:56.041Z,48.8
2023-01-12T16:49:14.828Z,48
2023-01-12T16:54:33.440Z,47.7
2023-01-12T16:59:52.454Z,48.8
2023-01-12T17:05:11.252Z,47.7
2023-01-12T17:10:30.324Z,48.6
2023-01-12T17:15:49.135Z,48.6
2023-01-12T17:21:08.289Z,48.6
2023-01-12T17:26:27.465Z,48.6
2023-01-12T17:31:46.165Z,48.4
2023-01-12T17:37:05.451Z,48.6
2023-01-12T17:42:24.673Z,48
2023-01-12T17:47:43.313Z,48.1
2023-01-12T17:52:45.912Z,47.7
2023-01-12T17:58:04.290Z,48.7
2023-01-12T18:03:22.933Z,48
2023-01-12T18:08:26.547Z,49
2023-01-12T18:13:29.985Z,48.4
2023-01-12T18:18:48.876Z,48.8
2023-01-12T18:24:07.731Z,48.8
2023-01-12T18:29:26.561Z,48.2
2023-01-12T18:34:44.818Z,48.7
2023-01-12T18:40:03.526Z,48
2023-01-12T18:45:21.833Z,48.3
2023-01-12T18:50:40.344Z,48.5
2023-01-12T18:55:58.579Z,48.4
2023-01-12T19:01:18.002Z,48.8
2023-01-12T19:06:37.236Z,48.3
2023-01-12T19:11:55.425Z,49
2023-01-12T19:17:13.757Z,49
2023-01-12T19:22:31.983Z,48.2
2023-01-12T19:27:50.293Z,48.9
2023-01-12T19:33:09.394Z,49.1
2023-01-12T19:38:29.035Z,48.4
2023-01-12T19:43:47.235Z,48.4
2023-01-12T19:49:05.762Z,48.3
2023-01-12T19:54:24.516Z,49
2023-01-12T19:59:42.729Z,48.7
2023-01-12T20:05:01.412Z,48.2
2023-01-12T20:10:20.195Z,48.7
2023-01-12T20:15:38.380Z,48.8
2023-01-12T20:20:56.892Z,48.1
2023-01-12T20:26:15.129Z,46.1
2023-01-12T20:37:08.600Z,48.1
2023-01-12T20:42:26.801Z,49
2023-01-12T20:47:45.309Z,49.5
2023-01-12T20:53:04.010Z,49.5
2023-01-12T20:58:07.329Z,49.9
2023-01-12T21:03:10.532Z,49.5
2023-01-12T21:08:29.234Z,50.1
2023-01-12T21:13:48.063Z,49.8
2023-01-12T21:19:06.915Z,50.6
2023-01-12T21:24:25.929Z,50.8
2023-01-12T21:29:44.496Z,50.4
2023-01-12T21:35:03.102Z,50.4
2023-01-12T21:40:21.999Z,51.6
2023-01-12T21:45:40.664Z,51.1
2023-01-12T21:50:59.433Z,51.5
2023-01-12T21:56:18.277Z,51.7
2023-01-12T22:01:37.630Z,51.4
2023-01-12T22:06:55.904Z,51.7
2023-01-12T22:12:14.623Z,51.5
2023-01-12T22:23:01.122Z,51.6
2023-01-12T22:28:19.674Z,51.4
2023-01-12T22:33:38.451Z,51.6
2023-01-12T22:38:57.230Z,50.9
2023-01-12T22:44:15.775Z,52.3
2023-01-12T22:49:34.782Z,51
2023-01-12T22:54:53.297Z,52
2023-01-12T23:00:11.825Z,51.1
2023-01-12T23:05:30.581Z,51.4
2023-01-12T23:10:49.069Z,51.2
2023-01-12T23:16:07.609Z,51.1
2023-01-12T23:21:25.802Z,51.1
2023-01-12T23:26:44.287Z,51
2023-01-12T23:32:03.081Z,51.3
2023-01-12T23:37:21.845Z,52.2
2023-01-12T23:42:40.329Z,51.6
2023-01-12T23:47:58.846Z,51.9
2023-01-12T23:53:17.774Z,51.6
2023-01-12T23:58:35.714Z,51.1
